createdAt,value
2023-06-11T00:01:50.458Z,49.23
2023-06-11T00:04:26.910Z,49.80
2023-06-11T00:06:57.630Z,50.13
2023-06-11T00:09:28.198Z,49.75
2023-06-11T00:11:56.546Z,49.86
2023-06-11T00:14:27.374Z,49.56
2023-06-11T00:16:58.391Z,49.22
2023-06-11T00:19:30.350Z,49.14
2023-06-11T00:22:03.570Z,49.51
2023-06-11T00:24:31.333Z,49.07
2023-06-11T00:27:03.156Z,49.35
2023-06-11T00:29:31.594Z,49.19
2023-06-11T00:32:02.804Z,48.91
2023-06-11T00:34:31.353Z,48.96
2023-06-11T00:37:00.977Z,48.88
2023-06-11T00:39:29.761Z,49.04
2023-06-11T00:41:58.866Z,48.96
2023-06-11T00:44:26.885Z,48.87
2023-06-11T00:46:55.414Z,48.91
2023-06-11T00:49:25.099Z,48.74
2023-06-11T00:51:56.116Z,48.70
2023-06-11T00:54:24.055Z,48.34
2023-06-11T00:56:52.594Z,48.35
2023-06-11T00:59:21.179Z,47.92
2023-06-11T01:01:57.686Z,47.92
2023-06-11T01:04:28.416Z,47.94
2023-06-11T01:07:01.933Z,47.93
2023-06-11T01:09:31.080Z,47.79
2023-06-11T01:12:00.040Z,47.83
2023-06-11T01:14:28.025Z,48.17
2023-06-11T01:17:05.932Z,47.90
2023-06-11T01:19:55.786Z,47.38
2023-06-11T01:22:32.142Z,47.18
2023-06-11T01:25:23.394Z,47.43
2023-06-11T01:28:09.156Z,47.28
2023-06-11T01:30:43.032Z,47.29
2023-06-11T01:33:12.031Z,47.21
2023-06-11T01:35:44.871Z,47.14
2023-06-11T01:38:16.649Z,47.48
2023-06-11T01:40:49.578Z,47.39
2023-06-11T01:43:17.928Z,47.13
2023-06-11T01:45:45.803Z,47.20
2023-06-11T01:48:16.811Z,47.11
2023-06-11T01:50:48.028Z,47.09
2023-06-11T01:53:17.323Z,46.48
2023-06-11T01:55:45.489Z,46.95
2023-06-11T01:58:13.588Z,46.50
2023-06-11T02:00:41.620Z,46.91
2023-06-11T02:03:10.011Z,46.50
2023-06-11T02:05:38.130Z,46.21
2023-06-11T02:08:06.187Z,46.66
2023-06-11T02:10:34.846Z,46.52
2023-06-11T02:13:03.257Z,46.39
2023-06-11T02:15:31.312Z,46.54
2023-06-11T02:17:59.179Z,46.21
2023-06-11T02:20:27.143Z,46.24
2023-06-11T02:22:55.245Z,45.90
2023-06-11T02:25:23.177Z,46.34
2023-06-11T02:27:52.336Z,46.27
2023-06-11T02:30:21.222Z,46.17
2023-06-11T02:32:49.153Z,46.06
2023-06-11T02:35:17.344Z,45.99
2023-06-11T02:37:45.094Z,45.96
2023-06-11T02:40:16.411Z,46.02
2023-06-11T02:42:44.109Z,46.20
2023-06-11T02:45:12.533Z,45.69
2023-06-11T02:47:40.729Z,45.82
2023-06-11T02:50:08.814Z,45.79
2023-06-11T02:52:36.620Z,45.63
2023-06-11T02:55:04.670Z,46.14
2023-06-11T02:57:32.501Z,45.72
2023-06-11T03:00:00.583Z,46.05
2023-06-11T03:02:29.786Z,45.97
2023-06-11T03:04:57.676Z,45.75
2023-06-11T03:07:25.669Z,45.82
2023-06-11T03:09:53.576Z,45.61
2023-06-11T03:12:21.895Z,45.86
2023-06-11T03:14:49.699Z,46.17
2023-06-11T03:17:18.633Z,46.52
2023-06-11T03:19:46.442Z,46.10
2023-06-11T03:22:14.796Z,45.45
2023-06-11T03:24:43.692Z,45.47
2023-06-11T03:27:22.351Z,45.82
2023-06-11T03:29:50.298Z,45.73
2023-06-11T03:32:19.151Z,45.37
2023-06-11T03:34:53.804Z,45.22
2023-06-11T03:37:24.050Z,45.47
2023-06-11T03:39:55.948Z,45.13
2023-06-11T03:42:24.983Z,45.11
2023-06-11T03:44:54.980Z,45.06
2023-06-11T03:47:24.750Z,44.71
2023-06-11T03:49:53.389Z,44.82
2023-06-11T03:52:22.182Z,44.85
2023-06-11T03:54:50.402Z,44.80
2023-06-11T03:57:20.012Z,44.75
2023-06-11T03:59:48.057Z,44.57
2023-06-11T04:02:16.094Z,44.45
2023-06-11T04:04:44.561Z,44.62
2023-06-11T04:07:13.011Z,44.43
2023-06-11T04:09:42.259Z,44.57
2023-06-11T04:12:10.313Z,44.13
2023-06-11T04:14:38.520Z,44.66
2023-06-11T04:17:06.814Z,44.37
2023-06-11T04:19:35.123Z,44.05
2023-06-11T04:22:03.056Z,44.08
2023-06-11T04:24:30.853Z,44.32
2023-06-11T04:26:59.412Z,44.32
2023-06-11T04:29:30.975Z,44.03
2023-06-11T04:32:04.486Z,43.97
2023-06-11T04:34:35.345Z,43.94
2023-06-11T04:37:03.639Z,44.00
2023-06-11T04:39:32.748Z,44.35
2023-06-11T04:42:06.785Z,44.32
2023-06-11T04:44:34.682Z,44.17
2023-06-11T04:47:06.702Z,44.13
2023-06-11T04:49:38.683Z,44.28
2023-06-11T04:52:06.995Z,44.01
2023-06-11T04:54:34.854Z,44.17
2023-06-11T04:57:05.365Z,43.98
2023-06-11T04:59:33.530Z,43.93
2023-06-11T05:02:04.926Z,44.05
2023-06-11T05:04:33.044Z,43.81
2023-06-11T05:07:02.265Z,43.79
2023-06-11T05:09:31.402Z,43.81
2023-06-11T05:11:59.901Z,43.80
2023-06-11T05:14:30.805Z,43.86
2023-06-11T05:17:01.501Z,43.78
2023-06-11T05:19:30.882Z,43.87
2023-06-11T05:22:00.978Z,44.00
2023-06-11T05:24:30.890Z,43.82
2023-06-11T05:27:02.176Z,44.19
2023-06-11T05:29:32.993Z,43.79
2023-06-11T05:32:02.317Z,43.87
2023-06-11T05:34:31.648Z,43.88
2023-06-11T05:37:02.475Z,43.73
2023-06-11T05:39:30.720Z,43.76
2023-06-11T05:41:59.235Z,43.68
2023-06-11T05:44:27.140Z,44.08
2023-06-11T05:46:55.303Z,43.88
2023-06-11T05:49:30.948Z,43.77
2023-06-11T05:52:00.153Z,44.38
2023-06-11T05:54:28.178Z,44.28
2023-06-11T05:56:58.012Z,44.20
2023-06-11T05:59:26.262Z,44.25
2023-06-11T06:01:54.556Z,43.96
2023-06-11T06:04:24.030Z,44.26
2023-06-11T06:06:52.312Z,43.83
2023-06-11T06:09:20.221Z,44.20
2023-06-11T06:11:48.760Z,43.99
2023-06-11T06:14:16.931Z,44.09
2023-06-11T06:16:47.360Z,44.01
2023-06-11T06:19:18.829Z,44.10
2023-06-11T06:21:48.137Z,44.01
2023-06-11T06:24:17.534Z,44.07
2023-06-11T06:26:46.492Z,43.69
2023-06-11T06:29:15.505Z,44.00
2023-06-11T06:31:46.584Z,43.65
2023-06-11T06:34:17.491Z,43.70
2023-06-11T06:36:45.721Z,43.88
2023-06-11T06:39:13.618Z,43.65
2023-06-11T06:41:41.773Z,43.86
2023-06-11T06:44:13.239Z,43.50
2023-06-11T06:46:41.200Z,43.53
2023-06-11T06:49:12.665Z,43.54
2023-06-11T06:51:40.596Z,43.60
2023-06-11T06:54:10.099Z,44.08
2023-06-11T06:56:41.345Z,43.85
2023-06-11T06:59:09.488Z,43.70
2023-06-11T07:01:40.351Z,43.77
2023-06-11T07:04:09.875Z,43.66
2023-06-11T07:06:37.914Z,43.98
2023-06-11T07:09:06.772Z,44.02
2023-06-11T07:11:35.272Z,44.19
2023-06-11T07:14:04.075Z,44.55
2023-06-11T07:16:32.749Z,43.79
2023-06-11T07:19:05.776Z,43.63
2023-06-11T07:21:36.732Z,43.54
2023-06-11T07:24:07.179Z,43.17
2023-06-11T07:26:35.883Z,43.00
2023-06-11T07:29:04.027Z,42.49
2023-06-11T07:31:33.095Z,42.76
2023-06-11T07:34:01.148Z,42.71
2023-06-11T07:36:29.321Z,42.88
2023-06-11T07:38:57.460Z,42.96
2023-06-11T07:41:25.591Z,43.26
2023-06-11T07:43:53.724Z,43.73
2023-06-11T07:46:23.541Z,43.00
2023-06-11T07:48:52.420Z,43.73
2023-06-11T07:51:21.653Z,43.40
2023-06-11T07:53:52.781Z,43.59
2023-06-11T07:56:20.871Z,42.73
2023-06-11T07:58:48.881Z,42.96
2023-06-11T08:01:17.176Z,42.79
2023-06-11T08:03:44.972Z,42.81
2023-06-11T08:06:15.402Z,43.48
2023-06-11T08:08:43.508Z,43.98
2023-06-11T08:11:11.459Z,43.51
2023-06-11T08:13:39.723Z,42.93
2023-06-11T08:16:11.705Z,43.24
2023-06-11T08:18:39.525Z,43.96
2023-06-11T08:21:07.405Z,43.92
2023-06-11T08:23:40.403Z,44.16
2023-06-11T08:26:08.470Z,44.13
2023-06-11T08:28:36.861Z,44.67
2023-06-11T08:31:04.746Z,44.86
2023-06-11T08:33:34.761Z,44.72
2023-06-11T08:36:04.594Z,44.46
2023-06-11T08:38:32.542Z,44.07
2023-06-11T08:41:01.660Z,44.30
2023-06-11T08:43:31.862Z,44.72
2023-06-11T08:45:59.703Z,44.94
2023-06-11T08:48:31.592Z,45.17
2023-06-11T08:51:01.122Z,44.94
2023-06-11T08:53:29.430Z,44.66
2023-06-11T08:55:57.449Z,44.88
2023-06-11T08:58:26.554Z,44.92
2023-06-11T09:00:54.504Z,44.79
2023-06-11T09:03:22.508Z,44.49
2023-06-11T09:05:52.457Z,44.85
2023-06-11T09:08:20.250Z,44.81
2023-06-11T09:10:52.739Z,44.83
2023-06-11T09:13:25.093Z,44.30
2023-06-11T09:15:55.124Z,44.52
2023-06-11T09:18:28.630Z,44.42
2023-06-11T09:20:59.147Z,44.29
2023-06-11T09:23:32.299Z,44.13
2023-06-11T09:26:01.740Z,43.67
2023-06-11T09:28:34.608Z,41.43
2023-06-11T09:31:04.533Z,41.91
2023-06-11T09:33:33.773Z,41.37
2023-06-11T09:36:02.064Z,41.50
2023-06-11T09:38:35.932Z,41.20
2023-06-11T09:41:07.800Z,40.54
2023-06-11T09:43:36.066Z,40.85
2023-06-11T09:46:06.162Z,41.15
2023-06-11T09:48:34.888Z,40.55
2023-06-11T09:51:04.861Z,40.26
2023-06-11T09:53:36.037Z,40.86
2023-06-11T09:56:11.048Z,40.91
2023-06-11T09:58:40.364Z,40.83
2023-06-11T10:01:09.372Z,40.90
2023-06-11T10:03:39.346Z,40.79
2023-06-11T10:06:13.341Z,40.37
2023-06-11T10:08:46.787Z,39.86
2023-06-11T10:11:17.236Z,40.18
2023-06-11T10:13:57.381Z,41.02
2023-06-11T10:16:26.558Z,40.35
2023-06-11T10:19:06.534Z,40.74
2023-06-11T10:21:37.987Z,40.33
2023-06-11T10:24:06.417Z,40.71
2023-06-11T10:26:36.653Z,40.25
2023-06-11T10:29:11.604Z,40.00
2023-06-11T10:31:44.010Z,39.85
2023-06-11T10:34:16.301Z,39.34
2023-06-11T10:36:44.475Z,40.47
2023-06-11T10:39:24.178Z,40.37
2023-06-11T10:42:03.091Z,39.73
2023-06-11T10:44:31.347Z,40.00
2023-06-11T10:47:02.461Z,39.60
2023-06-11T10:49:33.435Z,39.72
2023-06-11T10:52:03.911Z,39.95
2023-06-11T10:54:36.739Z,39.91
2023-06-11T10:57:07.354Z,40.22
2023-06-11T10:59:36.105Z,39.77
2023-06-11T11:02:04.174Z,39.35
2023-06-11T11:04:32.194Z,39.32
2023-06-11T11:07:09.954Z,39.13
2023-06-11T11:09:38.102Z,39.04
2023-06-11T11:12:07.476Z,39.08
2023-06-11T11:14:35.933Z,39.20
2023-06-11T11:17:04.260Z,39.45
2023-06-11T11:19:32.397Z,39.12
2023-06-11T11:22:00.283Z,39.50
2023-06-11T11:24:28.045Z,39.54
2023-06-11T11:26:56.914Z,39.21
2023-06-11T11:29:25.386Z,39.69
2023-06-11T11:31:53.389Z,39.48
2023-06-11T11:34:21.300Z,39.63
2023-06-11T11:36:49.092Z,39.18
2023-06-11T11:39:16.950Z,39.22
2023-06-11T11:41:49.132Z,39.28
2023-06-11T11:44:18.337Z,39.58
2023-06-11T11:46:47.515Z,39.32
2023-06-11T11:49:15.541Z,39.15
2023-06-11T11:51:53.870Z,39.28
2023-06-11T11:54:21.939Z,39.56
2023-06-11T11:56:58.622Z,39.29
2023-06-11T11:59:28.997Z,38.88
2023-06-11T12:01:58.164Z,39.29
2023-06-11T12:04:37.431Z,39.31
2023-06-11T12:07:24.324Z,39.27
2023-06-11T12:09:52.204Z,39.58
2023-06-11T12:12:22.912Z,39.55
2023-06-11T12:14:53.952Z,39.36
2023-06-11T12:17:22.089Z,39.10
2023-06-11T12:19:50.061Z,39.09
2023-06-11T12:22:17.965Z,39.32
2023-06-11T12:24:46.023Z,38.83
2023-06-11T12:27:14.219Z,38.81
2023-06-11T12:29:43.109Z,38.79
2023-06-11T12:32:15.138Z,38.60
2023-06-11T12:34:43.466Z,39.10
2023-06-11T12:37:11.900Z,38.79
2023-06-11T12:39:44.678Z,39.00
2023-06-11T12:42:12.708Z,38.71
2023-06-11T12:44:42.715Z,38.96
2023-06-11T12:47:11.082Z,38.69
2023-06-11T12:49:38.934Z,38.36
2023-06-11T12:52:08.646Z,38.42
2023-06-11T12:54:36.482Z,38.54
2023-06-11T12:57:05.183Z,38.52
2023-06-11T12:59:33.491Z,38.62
2023-06-11T13:02:01.386Z,38.83
2023-06-11T13:04:29.234Z,38.54
2023-06-11T13:06:57.443Z,38.33
2023-06-11T13:09:26.612Z,38.76
2023-06-11T13:11:54.712Z,38.66
2023-06-11T13:14:22.762Z,38.46
2023-06-11T13:16:52.851Z,38.62
2023-06-11T13:19:20.765Z,38.42
2023-06-11T13:21:48.536Z,38.71
2023-06-11T13:24:18.260Z,38.70
2023-06-11T13:26:46.210Z,38.57
2023-06-11T13:29:14.401Z,38.97
2023-06-11T13:31:42.324Z,38.61
2023-06-11T13:34:10.592Z,38.40
2023-06-11T13:36:38.735Z,39.19
2023-06-11T13:39:08.288Z,38.81
2023-06-11T13:41:36.066Z,38.90
2023-06-11T13:44:05.935Z,38.69
2023-06-11T13:46:36.472Z,38.62
2023-06-11T13:49:04.337Z,38.04
2023-06-11T13:51:33.609Z,38.11
2023-06-11T13:54:01.443Z,38.40
2023-06-11T13:56:29.825Z,38.34
2023-06-11T13:58:57.716Z,37.94
2023-06-11T14:01:25.649Z,38.07
2023-06-11T14:03:53.604Z,38.24
2023-06-11T14:06:21.608Z,37.80
2023-06-11T14:08:49.413Z,37.71
2023-06-11T14:11:18.448Z,37.85
2023-06-11T14:13:46.568Z,37.92
2023-06-11T14:16:15.424Z,38.17
2023-06-11T14:18:43.551Z,38.24
2023-06-11T14:21:11.338Z,38.36
2023-06-11T14:23:39.182Z,37.90
2023-06-11T14:26:07.605Z,37.82
2023-06-11T14:28:35.758Z,37.81
2023-06-11T14:31:06.091Z,37.52
2023-06-11T14:33:33.937Z,37.66
2023-06-11T14:36:06.223Z,37.51
2023-06-11T14:38:34.607Z,37.63
2023-06-11T14:41:02.601Z,37.94
2023-06-11T14:43:34.814Z,37.88
2023-06-11T14:46:02.723Z,37.76
2023-06-11T14:48:30.681Z,37.56
2023-06-11T14:50:58.549Z,37.15
2023-06-11T14:53:26.275Z,37.20
2023-06-11T14:55:54.535Z,37.08
2023-06-11T14:58:22.434Z,37.38
2023-06-11T15:00:51.396Z,37.37
2023-06-11T15:03:19.321Z,36.92
2023-06-11T15:05:47.370Z,37.09
2023-06-11T15:08:15.173Z,37.06
2023-06-11T15:10:43.118Z,36.95
2023-06-11T15:13:10.802Z,37.26
2023-06-11T15:15:38.698Z,36.88
2023-06-11T15:18:08.982Z,37.38
2023-06-11T15:20:37.028Z,37.33
2023-06-11T15:23:07.124Z,37.53
2023-06-11T15:25:37.196Z,37.71
2023-06-11T15:28:05.210Z,37.30
2023-06-11T15:30:33.089Z,37.41
2023-06-11T15:33:00.805Z,37.79
2023-06-11T15:35:28.721Z,37.67
2023-06-11T15:37:56.657Z,37.43
2023-06-11T15:40:24.692Z,37.37
2023-06-11T15:42:52.648Z,37.49
2023-06-11T15:45:20.901Z,37.34
2023-06-11T15:47:48.969Z,37.62
2023-06-11T15:50:17.127Z,37.62
2023-06-11T15:52:46.232Z,39.25
2023-06-11T15:55:14.791Z,41.63
2023-06-11T15:57:44.570Z,40.81
2023-06-11T16:00:13.309Z,43.26
2023-06-11T16:02:41.498Z,41.24
2023-06-11T16:05:09.747Z,39.70
2023-06-11T16:07:37.781Z,39.47
2023-06-11T16:10:06.373Z,39.26
2023-06-11T16:12:34.352Z,39.35
2023-06-11T16:15:02.235Z,39.19
2023-06-11T16:17:30.481Z,39.22
2023-06-11T16:19:58.218Z,39.08
2023-06-11T16:22:27.727Z,39.64
2023-06-11T16:24:55.957Z,40.51
2023-06-11T16:27:24.094Z,39.88
2023-06-11T16:29:53.041Z,39.08
2023-06-11T16:32:22.715Z,39.04
2023-06-11T16:34:50.617Z,38.94
2023-06-11T16:37:18.592Z,38.91
2023-06-11T16:39:46.518Z,39.13
2023-06-11T16:42:14.711Z,39.00
2023-06-11T16:44:42.553Z,39.39
2023-06-11T16:47:11.008Z,39.02
2023-06-11T16:49:38.894Z,39.10
2023-06-11T16:52:07.023Z,38.72
2023-06-11T16:54:34.969Z,39.06
2023-06-11T16:57:02.844Z,41.71
2023-06-11T16:59:30.787Z,43.05
2023-06-11T17:01:58.582Z,42.11
2023-06-11T17:04:26.667Z,40.74
2023-06-11T17:06:54.665Z,39.64
2023-06-11T17:09:24.227Z,40.08
2023-06-11T17:11:52.128Z,39.47
2023-06-11T17:14:20.066Z,38.95
2023-06-11T17:16:47.979Z,38.34
2023-06-11T17:19:17.051Z,38.14
2023-06-11T17:21:44.888Z,38.50
2023-06-11T17:24:14.316Z,38.57
2023-06-11T17:26:42.848Z,38.62
2023-06-11T17:29:11.423Z,38.42
2023-06-11T17:31:39.500Z,38.11
2023-06-11T17:34:07.375Z,38.00
2023-06-11T17:36:35.055Z,38.19
2023-06-11T17:39:02.825Z,37.90
2023-06-11T17:41:30.898Z,37.47
2023-06-11T17:43:58.800Z,37.63
2023-06-11T17:46:26.701Z,37.73
2023-06-11T17:48:54.777Z,37.32
2023-06-11T17:51:22.659Z,37.61
2023-06-11T17:53:51.037Z,37.37
2023-06-11T17:56:19.053Z,37.79
2023-06-11T17:58:47.684Z,37.68
2023-06-11T18:01:16.147Z,37.96
2023-06-11T18:03:44.002Z,37.97
2023-06-11T18:06:13.668Z,38.06
2023-06-11T18:08:42.292Z,37.56
2023-06-11T18:11:10.710Z,37.37
2023-06-11T18:13:38.585Z,38.35
2023-06-11T18:16:06.397Z,38.59
2023-06-11T18:18:34.322Z,38.72
2023-06-11T18:21:02.152Z,39.03
2023-06-11T18:23:30.142Z,39.26
2023-06-11T18:25:58.078Z,39.19
2023-06-11T18:28:26.816Z,39.82
2023-06-11T18:30:58.878Z,39.96
2023-06-11T18:33:28.241Z,40.31
2023-06-11T18:35:56.069Z,41.05
2023-06-11T18:38:24.048Z,41.06
2023-06-11T18:40:51.843Z,41.10
2023-06-11T18:43:19.694Z,41.86
2023-06-11T18:45:47.980Z,41.79
2023-06-11T18:48:15.879Z,41.80
2023-06-11T18:50:43.852Z,41.32
2023-06-11T18:53:11.941Z,40.48
2023-06-11T18:55:41.603Z,39.97
2023-06-11T18:58:09.472Z,39.68
2023-06-11T19:00:40.828Z,39.82
2023-06-11T19:03:09.500Z,40.06
2023-06-11T19:05:37.499Z,40.33
2023-06-11T19:08:07.462Z,40.32
2023-06-11T19:10:35.774Z,41.18
2023-06-11T19:13:05.276Z,41.37
2023-06-11T19:15:34.250Z,41.39
2023-06-11T19:18:04.984Z,41.77
2023-06-11T19:20:33.587Z,42.26
2023-06-11T19:23:01.360Z,42.50
2023-06-11T19:25:31.012Z,42.40
2023-06-11T19:27:58.978Z,42.57
2023-06-11T19:30:29.380Z,42.33
2023-06-11T19:32:58.530Z,42.20
2023-06-11T19:35:26.510Z,42.55
2023-06-11T19:37:54.791Z,42.44
2023-06-11T19:40:22.694Z,43.17
2023-06-11T19:42:51.653Z,43.03
2023-06-11T19:45:21.735Z,42.88
2023-06-11T19:47:51.621Z,43.39
2023-06-11T19:50:24.046Z,42.76
2023-06-11T19:52:51.888Z,42.41
2023-06-11T19:55:19.740Z,42.73
2023-06-11T19:57:47.622Z,42.58
2023-06-11T20:00:16.545Z,42.36
2023-06-11T20:02:44.558Z,42.51
2023-06-11T20:05:12.467Z,42.50
2023-06-11T20:07:40.808Z,42.10
2023-06-11T20:10:09.141Z,42.08
2023-06-11T20:12:37.122Z,41.67
2023-06-11T20:15:05.707Z,41.80
2023-06-11T20:17:33.681Z,41.42
2023-06-11T20:20:01.792Z,41.44
2023-06-11T20:22:29.583Z,41.16
2023-06-11T20:24:57.477Z,41.62
2023-06-11T20:27:25.551Z,41.78
2023-06-11T20:29:53.412Z,41.81
2023-06-11T20:32:22.488Z,42.04
2023-06-11T20:34:50.591Z,42.37
2023-06-11T20:37:21.188Z,42.21
2023-06-11T20:39:49.077Z,42.19
2023-06-11T20:42:18.535Z,41.89
2023-06-11T20:44:47.775Z,41.96
2023-06-11T20:47:17.099Z,41.96
2023-06-11T20:49:45.036Z,41.47
2023-06-11T20:52:12.918Z,41.54
2023-06-11T20:54:41.236Z,41.10
2023-06-11T20:57:09.668Z,41.66
2023-06-11T20:59:37.489Z,41.34
2023-06-11T21:02:05.588Z,41.78
2023-06-11T21:04:34.085Z,42.05
2023-06-11T21:07:04.137Z,41.53
2023-06-11T21:09:32.172Z,42.25
2023-06-11T21:12:01.731Z,42.00
2023-06-11T21:14:29.613Z,42.35
2023-06-11T21:16:57.472Z,42.30
2023-06-11T21:19:25.711Z,42.32
2023-06-11T21:21:53.766Z,42.49
2023-06-11T21:24:21.759Z,42.52
2023-06-11T21:26:49.738Z,42.61
2023-06-11T21:29:17.694Z,42.35
2023-06-11T21:31:45.658Z,42.45
2023-06-11T21:34:13.594Z,42.31
2023-06-11T21:36:41.574Z,42.36
2023-06-11T21:39:10.727Z,42.34
2023-06-11T21:41:38.812Z,42.13
2023-06-11T21:44:06.748Z,42.19
2023-06-11T21:46:34.786Z,41.80
2023-06-11T21:49:03.345Z,41.60
2023-06-11T21:51:31.463Z,41.39
2023-06-11T21:53:59.401Z,41.40
2023-06-11T21:56:28.765Z,41.09
2023-06-11T21:58:56.632Z,40.97
2023-06-11T22:01:24.840Z,40.77
2023-06-11T22:03:53.528Z,40.36
2023-06-11T22:06:21.822Z,40.73
2023-06-11T22:08:49.747Z,40.62
2023-06-11T22:11:18.330Z,40.60
2023-06-11T22:13:48.093Z,40.54
2023-06-11T22:16:17.724Z,40.64
2023-06-11T22:18:45.747Z,40.15
2023-06-11T22:21:18.472Z,39.91
2023-06-11T22:23:51.327Z,40.15
2023-06-11T22:26:21.562Z,40.14
2023-06-11T22:28:49.380Z,39.94
2023-06-11T22:31:18.064Z,39.69
2023-06-11T22:33:45.875Z,39.81
2023-06-11T22:36:13.668Z,39.39
2023-06-11T22:38:41.815Z,39.63
2023-06-11T22:41:10.511Z,39.39
2023-06-11T22:43:38.348Z,39.87
2023-06-11T22:46:06.466Z,39.65
2023-06-11T22:48:34.528Z,39.33
2023-06-11T22:51:02.566Z,39.44
2023-06-11T22:53:30.887Z,39.67
2023-06-11T22:55:58.922Z,40.06
2023-06-11T22:58:28.113Z,40.08
2023-06-11T23:00:58.470Z,39.80
2023-06-11T23:03:26.849Z,40.28
2023-06-11T23:05:55.133Z,40.24
2023-06-11T23:08:23.740Z,40.27
2023-06-11T23:10:51.593Z,39.96
2023-06-11T23:13:19.485Z,40.54
2023-06-11T23:15:47.494Z,40.50
2023-06-11T23:18:18.263Z,40.20
2023-06-11T23:20:47.950Z,40.43
2023-06-11T23:23:17.872Z,40.07
2023-06-11T23:25:50.912Z,40.32
2023-06-11T23:28:19.888Z,40.23
2023-06-11T23:30:48.569Z,40.33
2023-06-11T23:33:18.120Z,40.41
2023-06-11T23:35:45.994Z,40.59
2023-06-11T23:38:14.017Z,40.43
2023-06-11T23:40:42.188Z,40.77
2023-06-11T23:43:11.207Z,41.02
2023-06-11T23:45:39.058Z,40.44
2023-06-11T23:48:08.481Z,40.69
2023-06-11T23:50:39.701Z,40.70
2023-06-11T23:53:09.154Z,40.72
2023-06-11T23:55:36.893Z,40.82
2023-06-11T23:58:21.378Z,40.49
